sensor_id;sensor_type;location;lat;lon;timestamp;pressure;altitude;pressure_sealevel;temperature;humidity
85641;BME280;76065;47.182;27.506;2024-03-29T00:00:43;99549.44;;;12.71;46.96
85641;BME280;76065;47.182;27.506;2024-03-29T00:03:10;99554.06;;;12.71;46.95
85641;BME280;76065;47.182;27.506;2024-03-29T00:05:37;99561.53;;;12.65;47.28
85641;BME280;76065;47.182;27.506;2024-03-29T00:08:03;99554.72;;;12.68;47.62
85641;BME280;76065;47.182;27.506;2024-03-29T00:10:29;99554.91;;;12.45;48.35
85641;BME280;76065;47.182;27.506;2024-03-29T00:12:55;99558.75;;;12.27;48.77
85641;BME280;76065;47.182;27.506;2024-03-29T00:15:20;99567.47;;;12.33;48.58
85641;BME280;76065;47.182;27.506;2024-03-29T00:17:46;99562.22;;;12.36;48.77
85641;BME280;76065;47.182;27.506;2024-03-29T00:20:12;99567.75;;;12.57;48.14
85641;BME280;76065;47.182;27.506;2024-03-29T00:22:38;99571.38;;;12.70;47.51
85641;BME280;76065;47.182;27.506;2024-03-29T00:25:04;99575.97;;;12.69;48.02
85641;BME280;76065;47.182;27.506;2024-03-29T00:27:30;99562.00;;;12.67;47.64
85641;BME280;76065;47.182;27.506;2024-03-29T00:29:56;99570.25;;;12.71;47.86
85641;BME280;76065;47.182;27.506;2024-03-29T00:32:22;99560.25;;;12.71;47.35
85641;BME280;76065;47.182;27.506;2024-03-29T00:34:50;99571.88;;;12.63;48.70
85641;BME280;76065;47.182;27.506;2024-03-29T00:37:16;99567.91;;;12.60;48.13
85641;BME280;76065;47.182;27.506;2024-03-29T00:39:42;99562.19;;;12.53;48.35
85641;BME280;76065;47.182;27.506;2024-03-29T00:42:08;99569.50;;;12.53;48.47
85641;BME280;76065;47.182;27.506;2024-03-29T00:44:35;99555.22;;;12.44;49.69
85641;BME280;76065;47.182;27.506;2024-03-29T00:47:02;99559.88;;;12.35;49.26
85641;BME280;76065;47.182;27.506;2024-03-29T00:49:28;99556.53;;;12.20;49.63
85641;BME280;76065;47.182;27.506;2024-03-29T00:51:55;99557.97;;;12.18;49.69
85641;BME280;76065;47.182;27.506;2024-03-29T00:54:21;99565.13;;;12.05;50.65
85641;BME280;76065;47.182;27.506;2024-03-29T00:56:49;99554.31;;;11.80;51.90
85641;BME280;76065;47.182;27.506;2024-03-29T00:59:14;99549.41;;;11.73;51.85
85641;BME280;76065;47.182;27.506;2024-03-29T01:01:40;99530.03;;;11.88;50.81
85641;BME280;76065;47.182;27.506;2024-03-29T01:04:05;99527.19;;;12.10;50.04
85641;BME280;76065;47.182;27.506;2024-03-29T01:06:31;99533.03;;;12.04;50.86
85641;BME280;76065;47.182;27.506;2024-03-29T01:08:57;99529.53;;;12.12;50.43
85641;BME280;76065;47.182;27.506;2024-03-29T01:11:22;99532.22;;;12.29;50.32
85641;BME280;76065;47.182;27.506;2024-03-29T01:13:48;99530.75;;;12.40;50.20
85641;BME280;76065;47.182;27.506;2024-03-29T01:16:14;99518.88;;;12.33;50.28
85641;BME280;76065;47.182;27.506;2024-03-29T01:18:40;99521.28;;;12.17;51.78
85641;BME280;76065;47.182;27.506;2024-03-29T01:21:06;99517.03;;;12.07;51.06
85641;BME280;76065;47.182;27.506;2024-03-29T01:23:32;99517.03;;;11.99;51.90
85641;BME280;76065;47.182;27.506;2024-03-29T01:25:57;99515.13;;;11.99;51.89
85641;BME280;76065;47.182;27.506;2024-03-29T01:28:23;99498.16;;;11.90;52.33
85641;BME280;76065;47.182;27.506;2024-03-29T01:30:53;99507.19;;;11.94;52.20
85641;BME280;76065;47.182;27.506;2024-03-29T01:33:19;99488.00;;;11.79;53.22
85641;BME280;76065;47.182;27.506;2024-03-29T01:35:45;99494.00;;;11.84;52.51
85641;BME280;76065;47.182;27.506;2024-03-29T01:38:11;99490.22;;;11.77;53.92
85641;BME280;76065;47.182;27.506;2024-03-29T01:40:36;99494.50;;;11.86;52.95
85641;BME280;76065;47.182;27.506;2024-03-29T01:43:02;99486.53;;;11.98;52.32
85641;BME280;76065;47.182;27.506;2024-03-29T01:45:29;99490.47;;;12.18;51.92
85641;BME280;76065;47.182;27.506;2024-03-29T01:47:55;99488.09;;;12.16;51.95
85641;BME280;76065;47.182;27.506;2024-03-29T01:50:21;99480.91;;;12.29;51.37
85641;BME280;76065;47.182;27.506;2024-03-29T01:52:47;99472.78;;;12.46;50.70
85641;BME280;76065;47.182;27.506;2024-03-29T01:55:13;99469.41;;;12.49;50.78
85641;BME280;76065;47.182;27.506;2024-03-29T01:57:39;99487.19;;;12.59;50.77
85641;BME280;76065;47.182;27.506;2024-03-29T02:00:06;99488.41;;;12.70;50.48
85641;BME280;76065;47.182;27.506;2024-03-29T02:02:33;99500.94;;;12.75;50.14
85641;BME280;76065;47.182;27.506;2024-03-29T02:04:59;99497.91;;;12.76;50.17
85641;BME280;76065;47.182;27.506;2024-03-29T02:07:25;99495.56;;;12.66;50.62
85641;BME280;76065;47.182;27.506;2024-03-29T02:09:51;99508.44;;;12.69;50.76
85641;BME280;76065;47.182;27.506;2024-03-29T02:12:17;99503.25;;;12.55;50.88
85641;BME280;76065;47.182;27.506;2024-03-29T02:14:42;99507.03;;;12.63;51.08
85641;BME280;76065;47.182;27.506;2024-03-29T02:17:10;99491.78;;;12.58;51.02
85641;BME280;76065;47.182;27.506;2024-03-29T02:19:35;99492.91;;;12.57;51.13
85641;BME280;76065;47.182;27.506;2024-03-29T02:22:03;99485.34;;;12.42;51.92
85641;BME280;76065;47.182;27.506;2024-03-29T02:24:31;99481.69;;;12.38;52.05
85641;BME280;76065;47.182;27.506;2024-03-29T02:26:57;99477.91;;;12.31;52.47
85641;BME280;76065;47.182;27.506;2024-03-29T02:29:23;99478.72;;;12.31;52.58
85641;BME280;76065;47.182;27.506;2024-03-29T02:31:49;99475.38;;;12.26;52.54
85641;BME280;76065;47.182;27.506;2024-03-29T02:34:14;99475.38;;;12.26;52.87
85641;BME280;76065;47.182;27.506;2024-03-29T02:36:40;99482.53;;;12.22;52.74
85641;BME280;76065;47.182;27.506;2024-03-29T02:39:09;99488.88;;;12.17;53.39
85641;BME280;76065;47.182;27.506;2024-03-29T02:41:35;99442.91;;;11.88;53.25
85641;BME280;76065;47.182;27.506;2024-03-29T02:44:00;99475.59;;;12.03;53.54
85641;BME280;76065;47.182;27.506;2024-03-29T02:46:26;99475.59;;;12.03;53.85
85641;BME280;76065;47.182;27.506;2024-03-29T02:48:52;99464.16;;;11.98;54.44
85641;BME280;76065;47.182;27.506;2024-03-29T02:51:17;99473.69;;;11.95;54.47
85641;BME280;76065;47.182;27.506;2024-03-29T02:53:43;99458.13;;;11.92;53.97
85641;BME280;76065;47.182;27.506;2024-03-29T02:56:09;99464.78;;;12.03;53.94
85641;BME280;76065;47.182;27.506;2024-03-29T02:58:35;99464.28;;;12.10;53.43
85641;BME280;76065;47.182;27.506;2024-03-29T03:01:10;99467.59;;;12.24;53.32
85641;BME280;76065;47.182;27.506;2024-03-29T03:03:36;99462.03;;;12.29;53.30
85641;BME280;76065;47.182;27.506;2024-03-29T03:06:02;99445.97;;;12.24;53.71
85641;BME280;76065;47.182;27.506;2024-03-29T03:08:29;99452.97;;;12.25;53.15
85641;BME280;76065;47.182;27.506;2024-03-29T03:11:13;99442.97;;;12.26;53.09
85641;BME280;76065;47.182;27.506;2024-03-29T03:13:39;99471.38;;;12.32;53.53
85641;BME280;76065;47.182;27.506;2024-03-29T03:16:05;99458.53;;;12.20;53.27
85641;BME280;76065;47.182;27.506;2024-03-29T03:18:31;99465.53;;;12.21;53.39
85641;BME280;76065;47.182;27.506;2024-03-29T03:20:57;99476.78;;;12.32;52.88
85641;BME280;76065;47.182;27.506;2024-03-29T03:23:24;99456.16;;;12.27;53.30
85641;BME280;76065;47.182;27.506;2024-03-29T03:26:00;99482.16;;;12.32;53.63
85641;BME280;76065;47.182;27.506;2024-03-29T03:28:26;99481.41;;;12.31;53.05
85641;BME280;76065;47.182;27.506;2024-03-29T03:30:53;99488.38;;;12.32;53.53
85641;BME280;76065;47.182;27.506;2024-03-29T03:33:20;99509.00;;;12.37;53.64
85641;BME280;76065;47.182;27.506;2024-03-29T03:35:46;99513.25;;;12.55;52.95
85641;BME280;76065;47.182;27.506;2024-03-29T03:38:12;99516.41;;;12.57;52.74
85641;BME280;76065;47.182;27.506;2024-03-29T03:40:38;99512.47;;;12.54;52.79
85641;BME280;76065;47.182;27.506;2024-03-29T03:43:05;99509.78;;;12.46;53.42
85641;BME280;76065;47.182;27.506;2024-03-29T03:45:38;99533.94;;;12.42;53.85
85641;BME280;76065;47.182;27.506;2024-03-29T03:48:09;99533.00;;;12.38;53.77
85641;BME280;76065;47.182;27.506;2024-03-29T03:50:36;99528.72;;;12.37;54.43
85641;BME280;76065;47.182;27.506;2024-03-29T03:53:02;99540.16;;;12.43;53.94
85641;BME280;76065;47.182;27.506;2024-03-29T03:55:28;99530.97;;;12.35;54.35
85641;BME280;76065;47.182;27.506;2024-03-29T03:57:54;99537.75;;;12.41;54.58
85641;BME280;76065;47.182;27.506;2024-03-29T04:00:20;99541.25;;;12.50;54.51
85641;BME280;76065;47.182;27.506;2024-03-29T04:02:50;99538.53;;;12.50;54.15
85641;BME280;76065;47.182;27.506;2024-03-29T04:05:19;99550.88;;;12.60;53.90
85641;BME280;76065;47.182;27.506;2024-03-29T04:07:45;99549.31;;;12.59;54.21
85641;BME280;76065;47.182;27.506;2024-03-29T04:10:12;99547.88;;;12.61;54.09
85641;BME280;76065;47.182;27.506;2024-03-29T04:12:37;99531.84;;;12.56;54.59
85641;BME280;76065;47.182;27.506;2024-03-29T04:15:04;99523.28;;;12.54;54.60
85641;BME280;76065;47.182;27.506;2024-03-29T04:17:30;99533.75;;;12.56;54.32
85641;BME280;76065;47.182;27.506;2024-03-29T04:19:59;99529.13;;;12.56;54.95
85641;BME280;76065;47.182;27.506;2024-03-29T04:22:27;99538.66;;;12.62;54.27
85641;BME280;76065;47.182;27.506;2024-03-29T04:24:53;99515.59;;;12.65;54.55
85641;BME280;76065;47.182;27.506;2024-03-29T04:27:19;99521.94;;;12.69;54.34
85641;BME280;76065;47.182;27.506;2024-03-29T04:29:45;99534.78;;;12.81;53.69
85641;BME280;76065;47.182;27.506;2024-03-29T04:32:10;99550.50;;;12.87;53.47
85641;BME280;76065;47.182;27.506;2024-03-29T04:34:36;99530.97;;;12.82;53.82
85641;BME280;76065;47.182;27.506;2024-03-29T04:37:02;99528.88;;;12.87;53.25
85641;BME280;76065;47.182;27.506;2024-03-29T04:39:28;99527.56;;;12.93;53.72
85641;BME280;76065;47.182;27.506;2024-03-29T04:41:53;99518.88;;;12.88;53.44
85641;BME280;76065;47.182;27.506;2024-03-29T04:44:24;99503.91;;;12.90;53.23
85641;BME280;76065;47.182;27.506;2024-03-29T04:46:51;99502.41;;;13.01;53.16
85641;BME280;76065;47.182;27.506;2024-03-29T04:49:19;99497.78;;;13.02;53.34
85641;BME280;76065;47.182;27.506;2024-03-29T04:51:53;99512.38;;;13.09;52.67
85641;BME280;76065;47.182;27.506;2024-03-29T04:54:19;99528.31;;;13.11;52.39
85641;BME280;76065;47.182;27.506;2024-03-29T04:56:44;99530.78;;;13.25;51.80
85641;BME280;76065;47.182;27.506;2024-03-29T04:59:10;99529.63;;;13.55;51.37
85641;BME280;76065;47.182;27.506;2024-03-29T05:01:36;99546.09;;;13.91;50.34
85641;BME280;76065;47.182;27.506;2024-03-29T05:04:02;99559.25;;;13.72;50.85
85641;BME280;76065;47.182;27.506;2024-03-29T05:06:29;99561.13;;;13.59;51.43
85641;BME280;76065;47.182;27.506;2024-03-29T05:08:55;99565.00;;;13.50;51.54
85641;BME280;76065;47.182;27.506;2024-03-29T05:11:21;99546.13;;;13.62;51.03
85641;BME280;76065;47.182;27.506;2024-03-29T05:13:47;99548.78;;;14.45;49.19
85641;BME280;76065;47.182;27.506;2024-03-29T05:16:12;99488.97;;;15.23;45.97
85641;BME280;76065;47.182;27.506;2024-03-29T05:18:38;99550.41;;;16.19;44.77
85641;BME280;76065;47.182;27.506;2024-03-29T05:21:04;99539.03;;;16.02;44.95
85641;BME280;76065;47.182;27.506;2024-03-29T05:23:30;99542.31;;;15.43;46.30
85641;BME280;76065;47.182;27.506;2024-03-29T05:25:56;99540.06;;;14.84;48.39
85641;BME280;76065;47.182;27.506;2024-03-29T05:28:21;99536.06;;;14.58;49.28
85641;BME280;76065;47.182;27.506;2024-03-29T05:30:47;99532.31;;;15.83;45.72
85641;BME280;76065;47.182;27.506;2024-03-29T05:33:13;99542.69;;;17.27;42.74
85641;BME280;76065;47.182;27.506;2024-03-29T05:35:38;99523.16;;;18.14;39.93
85641;BME280;76065;47.182;27.506;2024-03-29T05:38:04;99505.34;;;19.08;38.00
85641;BME280;76065;47.182;27.506;2024-03-29T05:40:30;99507.06;;;19.42;37.22
85641;BME280;76065;47.182;27.506;2024-03-29T05:42:55;99509.06;;;19.45;37.18
85641;BME280;76065;47.182;27.506;2024-03-29T05:45:30;99512.47;;;19.98;35.94
85641;BME280;76065;47.182;27.506;2024-03-29T05:47:57;99485.59;;;20.04;35.75
85641;BME280;76065;47.182;27.506;2024-03-29T05:50:24;99454.63;;;19.93;35.88
85641;BME280;76065;47.182;27.506;2024-03-29T05:52:51;99428.28;;;20.18;35.44
85641;BME280;76065;47.182;27.506;2024-03-29T05:55:17;99413.22;;;20.31;34.25
85641;BME280;76065;47.182;27.506;2024-03-29T05:57:43;99400.59;;;20.67;33.54
85641;BME280;76065;47.182;27.506;2024-03-29T06:00:12;99382.16;;;20.53;33.87
85641;BME280;76065;47.182;27.506;2024-03-29T06:02:39;99404.50;;;21.21;33.15
85641;BME280;76065;47.182;27.506;2024-03-29T06:05:05;99417.19;;;21.57;32.47
85641;BME280;76065;47.182;27.506;2024-03-29T06:07:31;99433.53;;;21.32;32.65
85641;BME280;76065;47.182;27.506;2024-03-29T06:09:59;99454.81;;;21.71;32.07
85641;BME280;76065;47.182;27.506;2024-03-29T06:12:26;99457.00;;;21.30;32.07
85641;BME280;76065;47.182;27.506;2024-03-29T06:14:52;99456.34;;;21.54;31.63
85641;BME280;76065;47.182;27.506;2024-03-29T06:17:36;99477.69;;;22.07;31.16
85641;BME280;76065;47.182;27.506;2024-03-29T06:20:02;99464.47;;;22.58;30.71
85641;BME280;76065;47.182;27.506;2024-03-29T06:22:29;99463.72;;;22.82;30.50
85641;BME280;76065;47.182;27.506;2024-03-29T06:24:58;99470.28;;;23.42;29.61
85641;BME280;76065;47.182;27.506;2024-03-29T06:27:27;99479.34;;;23.31;29.77
85641;BME280;76065;47.182;27.506;2024-03-29T06:29:53;99474.66;;;22.65;29.93
85641;BME280;76065;47.182;27.506;2024-03-29T06:32:18;99479.75;;;22.56;30.16
85641;BME280;76065;47.182;27.506;2024-03-29T06:34:44;99457.41;;;23.00;29.92
85641;BME280;76065;47.182;27.506;2024-03-29T06:37:11;99440.56;;;22.83;29.96
85641;BME280;76065;47.182;27.506;2024-03-29T06:39:36;99447.59;;;22.53;29.94
85641;BME280;76065;47.182;27.506;2024-03-29T06:42:02;99421.69;;;23.03;30.27
85641;BME280;76065;47.182;27.506;2024-03-29T06:44:28;99416.63;;;22.88;30.08
85641;BME280;76065;47.182;27.506;2024-03-29T06:46:54;99423.66;;;22.67;28.91
85641;BME280;76065;47.182;27.506;2024-03-29T06:49:19;99418.19;;;22.43;28.24
85641;BME280;76065;47.182;27.506;2024-03-29T06:51:45;99454.22;;;22.23;28.38
85641;BME280;76065;47.182;27.506;2024-03-29T06:54:11;99480.72;;;21.80;28.63
85641;BME280;76065;47.182;27.506;2024-03-29T06:56:38;99484.72;;;21.97;28.95
85641;BME280;76065;47.182;27.506;2024-03-29T06:59:03;99487.94;;;22.27;28.97
85641;BME280;76065;47.182;27.506;2024-03-29T07:01:29;99518.03;;;21.99;29.06
85641;BME280;76065;47.182;27.506;2024-03-29T07:03:55;99508.19;;;21.91;29.23
85641;BME280;76065;47.182;27.506;2024-03-29T07:06:21;99523.66;;;22.38;29.61
85641;BME280;76065;47.182;27.506;2024-03-29T07:08:46;99543.75;;;22.88;29.80
85641;BME280;76065;47.182;27.506;2024-03-29T07:11:12;99536.16;;;22.18;29.55
85641;BME280;76065;47.182;27.506;2024-03-29T07:13:38;99558.81;;;22.04;29.78
85641;BME280;76065;47.182;27.506;2024-03-29T07:16:04;99568.66;;;22.12;30.58
85641;BME280;76065;47.182;27.506;2024-03-29T07:18:30;99571.03;;;22.24;29.80
85641;BME280;76065;47.182;27.506;2024-03-29T07:20:55;99567.22;;;22.47;29.32
85641;BME280;76065;47.182;27.506;2024-03-29T07:23:21;99576.72;;;22.81;27.90
85641;BME280;76065;47.182;27.506;2024-03-29T07:26:04;99597.09;;;22.69;27.56
85641;BME280;76065;47.182;27.506;2024-03-29T07:28:30;99567.84;;;22.08;24.54
85641;BME280;76065;47.182;27.506;2024-03-29T07:30:55;99584.03;;;22.42;24.52
85641;BME280;76065;47.182;27.506;2024-03-29T07:33:24;99600.63;;;21.87;25.00
85641;BME280;76065;47.182;27.506;2024-03-29T07:35:54;99589.47;;;22.27;24.59
85641;BME280;76065;47.182;27.506;2024-03-29T07:38:20;99640.22;;;22.69;24.22
85641;BME280;76065;47.182;27.506;2024-03-29T07:40:50;99636.69;;;21.89;25.33
85641;BME280;76065;47.182;27.506;2024-03-29T07:43:16;99633.50;;;22.59;23.79
85641;BME280;76065;47.182;27.506;2024-03-29T07:45:42;99623.34;;;21.91;25.08
85641;BME280;76065;47.182;27.506;2024-03-29T07:48:12;99654.91;;;22.18;24.59
85641;BME280;76065;47.182;27.506;2024-03-29T07:50:39;99650.25;;;22.29;23.59
85641;BME280;76065;47.182;27.506;2024-03-29T07:53:05;99625.00;;;21.99;23.36
85641;BME280;76065;47.182;27.506;2024-03-29T07:55:31;99662.72;;;22.16;23.46
85641;BME280;76065;47.182;27.506;2024-03-29T07:57:56;99690.94;;;22.13;23.99
85641;BME280;76065;47.182;27.506;2024-03-29T08:00:22;99682.88;;;21.87;23.62
85641;BME280;76065;47.182;27.506;2024-03-29T08:02:48;99653.84;;;22.48;23.44
85641;BME280;76065;47.182;27.506;2024-03-29T08:05:15;99678.03;;;22.21;23.38
85641;BME280;76065;47.182;27.506;2024-03-29T08:07:41;99678.03;;;22.17;23.58
85641;BME280;76065;47.182;27.506;2024-03-29T08:10:07;99703.25;;;22.48;23.30
85641;BME280;76065;47.182;27.506;2024-03-29T08:12:32;99687.84;;;22.22;23.42
85641;BME280;76065;47.182;27.506;2024-03-29T08:14:59;99715.53;;;22.03;23.90
85641;BME280;76065;47.182;27.506;2024-03-29T08:17:25;99714.91;;;23.27;23.02
85641;BME280;76065;47.182;27.506;2024-03-29T08:19:51;99724.03;;;23.60;22.23
85641;BME280;76065;47.182;27.506;2024-03-29T08:22:16;99750.09;;;22.79;22.38
85641;BME280;76065;47.182;27.506;2024-03-29T08:24:42;99731.03;;;23.18;22.30
85641;BME280;76065;47.182;27.506;2024-03-29T08:27:09;99745.00;;;22.74;23.11
85641;BME280;76065;47.182;27.506;2024-03-29T08:29:35;99756.78;;;22.78;22.66
85641;BME280;76065;47.182;27.506;2024-03-29T08:32:00;99754.09;;;22.96;22.92
85641;BME280;76065;47.182;27.506;2024-03-29T08:34:26;99756.69;;;22.68;20.34
85641;BME280;76065;47.182;27.506;2024-03-29T08:36:55;99763.91;;;22.25;20.35
85641;BME280;76065;47.182;27.506;2024-03-29T08:39:21;99784.56;;;22.66;19.69
85641;BME280;76065;47.182;27.506;2024-03-29T08:41:47;99801.31;;;23.23;19.36
85641;BME280;76065;47.182;27.506;2024-03-29T08:44:12;99802.03;;;23.06;19.82
85641;BME280;76065;47.182;27.506;2024-03-29T08:46:38;99783.53;;;22.99;20.11
85641;BME280;76065;47.182;27.506;2024-03-29T08:49:04;99809.03;;;22.93;21.16
85641;BME280;76065;47.182;27.506;2024-03-29T08:51:29;99834.84;;;22.74;20.69
85641;BME280;76065;47.182;27.506;2024-03-29T08:53:55;99810.66;;;23.11;26.83
85641;BME280;76065;47.182;27.506;2024-03-29T08:56:23;99857.84;;;23.31;28.82
85641;BME280;76065;47.182;27.506;2024-03-29T08:58:48;99888.88;;;23.31;28.63
85641;BME280;76065;47.182;27.506;2024-03-29T09:01:15;99893.84;;;23.01;29.49
85641;BME280;76065;47.182;27.506;2024-03-29T09:03:40;99885.81;;;22.75;29.93
85641;BME280;76065;47.182;27.506;2024-03-29T09:06:06;99906.59;;;22.69;32.05
85641;BME280;76065;47.182;27.506;2024-03-29T09:08:32;99911.13;;;22.98;31.23
85641;BME280;76065;47.182;27.506;2024-03-29T09:10:57;99929.16;;;22.99;30.71
85641;BME280;76065;47.182;27.506;2024-03-29T09:13:23;99933.72;;;22.74;31.38
85641;BME280;76065;47.182;27.506;2024-03-29T09:15:49;99930.22;;;22.84;32.37
85641;BME280;76065;47.182;27.506;2024-03-29T09:18:15;99918.44;;;22.83;31.79
85641;BME280;76065;47.182;27.506;2024-03-29T09:21:01;99924.31;;;22.78;31.81
85641;BME280;76065;47.182;27.506;2024-03-29T09:23:27;99924.50;;;22.56;31.74
85641;BME280;76065;47.182;27.506;2024-03-29T09:25:55;99941.16;;;22.29;32.09
85641;BME280;76065;47.182;27.506;2024-03-29T09:28:22;99936.31;;;22.16;32.61
85641;BME280;76065;47.182;27.506;2024-03-29T09:30:48;99946.91;;;22.17;32.39
85641;BME280;76065;47.182;27.506;2024-03-29T09:33:14;99944.38;;;22.38;31.80
85641;BME280;76065;47.182;27.506;2024-03-29T09:35:40;99947.94;;;22.90;31.01
85641;BME280;76065;47.182;27.506;2024-03-29T09:38:05;99950.59;;;21.95;31.20
85641;BME280;76065;47.182;27.506;2024-03-29T09:40:31;99950.25;;;22.00;32.23
85641;BME280;76065;47.182;27.506;2024-03-29T09:43:00;99948.31;;;22.01;32.38
85641;BME280;76065;47.182;27.506;2024-03-29T09:45:31;99951.16;;;22.55;32.32
85641;BME280;76065;47.182;27.506;2024-03-29T09:48:01;99946.63;;;22.29;31.24
85641;BME280;76065;47.182;27.506;2024-03-29T09:50:28;99948.66;;;22.36;31.71
85641;BME280;76065;47.182;27.506;2024-03-29T09:52:55;99958.44;;;22.33;32.58
85641;BME280;76065;47.182;27.506;2024-03-29T09:55:21;99963.53;;;22.35;32.46
85641;BME280;76065;47.182;27.506;2024-03-29T09:57:48;99970.50;;;22.66;31.35
85641;BME280;76065;47.182;27.506;2024-03-29T10:00:14;99965.91;;;22.36;31.21
85641;BME280;76065;47.182;27.506;2024-03-29T10:05:08;99960.09;;;22.45;32.78
85641;BME280;76065;47.182;27.506;2024-03-29T10:07:34;99971.56;;;23.02;30.82
85641;BME280;76065;47.182;27.506;2024-03-29T10:10:02;99976.63;;;22.96;29.99
85641;BME280;76065;47.182;27.506;2024-03-29T10:12:28;99972.19;;;22.77;31.90
85641;BME280;76065;47.182;27.506;2024-03-29T10:14:56;99974.69;;;23.00;30.01
85641;BME280;76065;47.182;27.506;2024-03-29T10:17:30;99976.91;;;23.39;29.74
85641;BME280;76065;47.182;27.506;2024-03-29T10:20:03;99964.72;;;23.40;29.59
85641;BME280;76065;47.182;27.506;2024-03-29T10:22:30;99976.22;;;23.56;29.76
85641;BME280;76065;47.182;27.506;2024-03-29T10:24:58;99967.28;;;23.80;28.53
85641;BME280;76065;47.182;27.506;2024-03-29T10:27:26;99969.44;;;23.39;28.27
85641;BME280;76065;47.182;27.506;2024-03-29T10:29:53;99961.69;;;23.55;28.45
85641;BME280;76065;47.182;27.506;2024-03-29T10:32:18;99965.44;;;23.26;29.43
85641;BME280;76065;47.182;27.506;2024-03-29T10:34:44;99969.56;;;23.60;29.59
85641;BME280;76065;47.182;27.506;2024-03-29T10:37:10;99970.44;;;23.82;28.69
85641;BME280;76065;47.182;27.506;2024-03-29T10:39:36;99974.72;;;23.76;28.11
85641;BME280;76065;47.182;27.506;2024-03-29T10:42:02;99983.31;;;23.57;28.85
85641;BME280;76065;47.182;27.506;2024-03-29T10:44:30;99990.88;;;23.81;28.66
85641;BME280;76065;47.182;27.506;2024-03-29T10:46:56;99996.25;;;23.53;28.06
85641;BME280;76065;47.182;27.506;2024-03-29T10:49:24;100000.59;;;23.61;29.36
85641;BME280;76065;47.182;27.506;2024-03-29T10:51:49;99997.63;;;23.98;28.09
85641;BME280;76065;47.182;27.506;2024-03-29T10:54:16;99980.66;;;23.85;27.61
85641;BME280;76065;47.182;27.506;2024-03-29T10:56:46;99990.19;;;23.29;27.93
85641;BME280;76065;47.182;27.506;2024-03-29T10:59:18;100005.28;;;23.50;28.09
85641;BME280;76065;47.182;27.506;2024-03-29T11:01:52;99999.59;;;23.97;27.31
85641;BME280;76065;47.182;27.506;2024-03-29T11:04:32;100000.41;;;24.12;27.67
85641;BME280;76065;47.182;27.506;2024-03-29T11:07:02;100001.66;;;24.18;26.96
85641;BME280;76065;47.182;27.506;2024-03-29T11:09:33;100000.81;;;24.14;26.70
85641;BME280;76065;47.182;27.506;2024-03-29T11:12:01;100014.25;;;24.44;26.99
85641;BME280;76065;47.182;27.506;2024-03-29T11:14:29;100001.69;;;24.43;27.63
85641;BME280;76065;47.182;27.506;2024-03-29T11:16:56;99993.44;;;24.43;26.95
85641;BME280;76065;47.182;27.506;2024-03-29T11:19:24;100011.13;;;24.35;26.31
85641;BME280;76065;47.182;27.506;2024-03-29T11:21:50;100008.78;;;24.51;26.23
85641;BME280;76065;47.182;27.506;2024-03-29T11:24:17;99994.63;;;25.09;25.25
85641;BME280;76065;47.182;27.506;2024-03-29T11:26:45;100003.66;;;25.20;25.30
85641;BME280;76065;47.182;27.506;2024-03-29T11:29:19;99999.72;;;25.39;24.85
85641;BME280;76065;47.182;27.506;2024-03-29T11:31:45;99998.94;;;25.35;24.70
85641;BME280;76065;47.182;27.506;2024-03-29T11:34:12;100015.44;;;25.59;25.46
85641;BME280;76065;47.182;27.506;2024-03-29T11:36:39;100006.03;;;24.58;26.06
85641;BME280;76065;47.182;27.506;2024-03-29T11:39:05;100013.13;;;24.59;26.96
85641;BME280;76065;47.182;27.506;2024-03-29T11:41:30;100000.50;;;24.40;24.86
85641;BME280;76065;47.182;27.506;2024-03-29T11:43:57;100001.31;;;24.58;24.98
85641;BME280;76065;47.182;27.506;2024-03-29T11:46:24;99976.41;;;24.09;26.33
85641;BME280;76065;47.182;27.506;2024-03-29T11:48:50;100011.16;;;24.70;26.38
85641;BME280;76065;47.182;27.506;2024-03-29T11:51:20;100002.88;;;25.27;24.91
85641;BME280;76065;47.182;27.506;2024-03-29T11:53:48;99995.19;;;25.94;24.82
85641;BME280;76065;47.182;27.506;2024-03-29T11:56:16;99982.22;;;25.84;23.47
85641;BME280;76065;47.182;27.506;2024-03-29T11:58:41;99991.28;;;25.85;24.38
85641;BME280;76065;47.182;27.506;2024-03-29T12:01:07;99992.13;;;25.78;23.24
85641;BME280;76065;47.182;27.506;2024-03-29T12:03:40;99988.94;;;25.83;23.70
85641;BME280;76065;47.182;27.506;2024-03-29T12:06:06;100001.09;;;25.96;22.98
85641;BME280;76065;47.182;27.506;2024-03-29T12:08:34;100020.66;;;26.34;24.94
85641;BME280;76065;47.182;27.506;2024-03-29T12:11:01;100012.66;;;26.50;22.56
85641;BME280;76065;47.182;27.506;2024-03-29T12:13:28;100014.31;;;26.37;24.25
85641;BME280;76065;47.182;27.506;2024-03-29T12:15:54;100017.00;;;25.71;22.79
85641;BME280;76065;47.182;27.506;2024-03-29T12:18:21;100007.47;;;25.86;24.67
85641;BME280;76065;47.182;27.506;2024-03-29T12:20:50;100018.34;;;26.18;23.18
85641;BME280;76065;47.182;27.506;2024-03-29T12:23:18;100017.19;;;26.19;22.56
85641;BME280;76065;47.182;27.506;2024-03-29T12:25:44;100012.44;;;26.13;22.94
85641;BME280;76065;47.182;27.506;2024-03-29T12:28:11;100017.97;;;26.20;21.32
85641;BME280;76065;47.182;27.506;2024-03-29T12:30:40;100023.03;;;26.28;24.38
85641;BME280;76065;47.182;27.506;2024-03-29T12:33:08;100006.28;;;26.57;21.32
85641;BME280;76065;47.182;27.506;2024-03-29T12:35:44;100012.75;;;26.32;21.51
85641;BME280;76065;47.182;27.506;2024-03-29T12:38:12;100021.03;;;26.36;21.82
85641;BME280;76065;47.182;27.506;2024-03-29T12:40:41;100024.75;;;26.70;22.93
85641;BME280;76065;47.182;27.506;2024-03-29T12:43:08;100026.03;;;25.68;22.15
85641;BME280;76065;47.182;27.506;2024-03-29T12:45:35;100035.38;;;26.02;21.17
85641;BME280;76065;47.182;27.506;2024-03-29T12:48:01;100029.91;;;25.95;21.36